createdAt,value
2019-05-29T05:11:57.847Z,1014.41
2019-05-29T05:21:57.782Z,1014.50
2019-05-29T05:31:57.795Z,1014.53
2019-05-29T05:41:59.945Z,1014.60
2019-05-29T05:51:57.728Z,1014.73
2019-05-29T06:01:57.907Z,1014.90
2019-05-29T06:11:59.600Z,1015.05
2019-05-29T06:22:00.082Z,1015.05
2019-05-29T06:31:59.217Z,1015.14
2019-05-29T06:42:00.223Z,1015.21
2019-05-29T06:51:57.915Z,1015.40
2019-05-29T07:01:57.808Z,1015.41
2019-05-29T07:11:57.771Z,1015.51
2019-05-29T07:21:57.754Z,1015.59
2019-05-29T07:31:59.740Z,1015.83
2019-05-29T07:41:57.347Z,1015.82
2019-05-29T07:51:59.793Z,1015.96
2019-05-29T08:01:59.756Z,1015.93
2019-05-29T08:11:57.369Z,1016.00
2019-05-29T08:21:59.587Z,1016.05
2019-05-29T08:31:57.816Z,1016.12
2019-05-29T08:42:21.394Z,1016.24
2019-05-29T08:52:11.059Z,1016.33
2019-05-29T09:01:57.819Z,1016.41
2019-05-29T09:11:57.785Z,1016.28
2019-05-29T09:21:57.799Z,1016.42
2019-05-29T09:31:57.822Z,1016.31
2019-05-29T09:41:57.540Z,1016.45
2019-05-29T09:51:56.249Z,1016.49
2019-05-29T10:02:00.352Z,1016.52
2019-05-29T10:11:59.438Z,1016.53
2019-05-29T10:21:58.336Z,1016.63
2019-05-29T10:31:57.535Z,1016.66
2019-05-29T10:41:57.559Z,1016.74
2019-05-29T10:52:10.708Z,1016.74
2019-05-29T11:01:56.826Z,1016.65
2019-05-29T11:11:57.679Z,1016.75
2019-05-29T11:22:04.611Z,1016.58
2019-05-29T11:31:57.072Z,1016.66
2019-05-29T11:41:57.100Z,1016.71
2019-05-29T11:52:18.794Z,1016.77
2019-05-29T12:01:57.375Z,1016.70
2019-05-29T12:11:57.992Z,1016.73
2019-05-29T12:21:58.352Z,1016.51
2019-05-29T12:31:57.113Z,1016.53
2019-05-29T12:41:57.595Z,1016.57
2019-05-29T12:51:57.680Z,1016.52
2019-05-29T13:01:58.452Z,1016.51
2019-05-29T13:11:58.458Z,1016.32
2019-05-29T13:21:57.375Z,1016.45
2019-05-29T13:31:58.115Z,1016.33
2019-05-29T13:41:58.606Z,1016.35
2019-05-29T13:51:57.208Z,1016.36
2019-05-29T14:01:58.429Z,1016.39
2019-05-29T14:11:58.912Z,1016.31
2019-05-29T14:21:57.326Z,1016.23
2019-05-29T14:31:57.220Z,1016.22
2019-05-29T14:41:57.905Z,1016.21
2019-05-29T14:51:57.832Z,1016.24
2019-05-29T15:01:57.293Z,1016.29
2019-05-29T15:11:57.304Z,1016.40
2019-05-29T15:21:57.456Z,1016.48
2019-05-29T15:31:57.432Z,1016.59
2019-05-29T15:41:57.385Z,1016.62
2019-05-29T15:51:57.565Z,1016.56
2019-05-29T16:01:57.386Z,1016.47
2019-05-29T16:11:57.494Z,1016.47
2019-05-29T16:21:57.866Z,1016.55
2019-05-29T16:31:57.952Z,1016.44
2019-05-29T16:41:57.863Z,1016.38
2019-05-29T16:51:57.864Z,1016.44
2019-05-29T17:01:57.430Z,1016.52
2019-05-29T17:11:57.765Z,1016.59
2019-05-29T17:21:57.808Z,1016.60
2019-05-29T17:31:57.854Z,1016.58
2019-05-29T17:41:57.835Z,1016.58
2019-05-29T17:51:57.893Z,1016.60
2019-05-29T18:01:57.998Z,1016.77
2019-05-29T18:11:57.996Z,1016.69
2019-05-29T18:21:57.900Z,1016.65
2019-05-29T18:31:57.880Z,1016.68
2019-05-29T18:41:57.837Z,1016.77
2019-05-29T18:52:00.253Z,1016.80
2019-05-29T19:01:59.832Z,1016.89
